Time;durP1;ratioP1;P1;durP2;ratioP2;P2;SDS_P1;SDS_P2;PMS_P1;PMS_P2;Temp;Humidity;BMP_temperature;BMP_pressure;BME280_temperature;BME280_humidity;BME280_pressure;Samples;Min_cycle;Max_cycle;Signal;HPM_P1;HPM_P2
2023/11/15 00:00:09;;;;;;;1.97;1.70;;;;;;;9.72;94.64;99486.88;5030366;28;20195;-73
2023/11/15 00:02:35;;;;;;;1.10;0.97;;;;;;;9.69;94.71;99495.47;5021597;28;20193;-72
2023/11/15 00:05:04;;;;;;;2.10;1.47;;;;;;;9.69;94.49;99494.72;5021953;28;20219;-73
2023/11/15 00:07:31;;;;;;;2.37;1.37;;;;;;;9.67;94.43;99489.00;5024890;28;20307;-74
2023/11/15 00:09:58;;;;;;;2.70;1.20;;;;;;;9.64;95.04;99487.81;5021964;28;20184;-73
2023/11/15 00:12:25;;;;;;;2.53;1.10;;;;;;;9.63;94.56;99491.56;5019998;28;20211;-72
2023/11/15 00:14:52;;;;;;;2.87;1.30;;;;;;;9.62;95.03;99497.97;5021451;28;20281;-73
2023/11/15 00:17:19;;;;;;;2.40;1.20;;;;;;;9.61;94.63;99495.66;5026083;28;20226;-72
2023/11/15 00:19:46;;;;;;;1.67;1.30;;;;;;;9.60;95.29;99502.81;5024212;28;20196;-72
2023/11/15 00:22:14;;;;;;;2.33;1.50;;;;;;;9.58;95.13;99497.13;5024209;28;20195;-73
2023/11/15 00:24:41;;;;;;;2.10;1.37;;;;;;;9.58;95.33;99488.47;5021617;28;20224;-72
2023/11/15 00:27:08;;;;;;;4.47;1.50;;;;;;;9.56;95.42;99499.34;5026034;28;20207;-72
2023/11/15 00:29:34;;;;;;;3.17;1.40;;;;;;;9.55;95.55;99492.56;5005367;28;20196;-72
2023/11/15 00:32:01;;;;;;;1.97;1.10;;;;;;;9.55;95.62;99492.56;5023769;28;20303;-74
2023/11/15 00:34:27;;;;;;;4.97;1.67;;;;;;;9.54;95.98;99495.53;5006697;28;20315;-73
2023/11/15 00:36:54;;;;;;;2.13;1.50;;;;;;;9.53;96.30;99499.28;5021460;28;20196;-73
2023/11/15 00:39:21;;;;;;;1.97;1.23;;;;;;;9.52;96.16;99497.75;5022789;28;20718;-72
2023/11/15 00:41:48;;;;;;;4.00;1.53;;;;;;;9.51;96.36;99496.97;5022018;28;20566;-72
2023/11/15 00:44:16;;;;;;;5.87;1.40;;;;;;;9.50;96.40;99502.59;5006152;28;20646;-72
2023/11/15 00:46:44;;;;;;;1.40;1.10;;;;;;;9.48;96.09;99504.81;5021199;28;20275;-73
2023/11/15 00:49:11;;;;;;;5.33;1.73;;;;;;;9.46;96.22;99505.16;5023032;28;20251;-73
2023/11/15 00:51:37;;;;;;;7.33;1.80;;;;;;;9.45;95.92;99506.25;5008738;28;20733;-72
2023/11/15 00:54:06;;;;;;;2.60;1.50;;;;;;;9.43;96.38;99513.72;5006616;28;20307;-73
2023/11/15 00:56:34;;;;;;;4.83;1.53;;;;;;;9.43;95.92;99511.09;5007793;28;20194;-73
2023/11/15 00:59:00;;;;;;;4.13;1.60;;;;;;;9.41;96.32;99509.91;5004541;28;20206;-72
2023/11/15 01:01:27;;;;;;;1.70;1.37;;;;;;;9.41;96.42;99513.31;5021759;28;20695;-72
2023/11/15 01:03:56;;;;;;;1.53;1.43;;;;;;;9.42;96.28;99522.75;5006758;28;20305;-72
2023/11/15 01:06:23;;;;;;;4.80;1.70;;;;;;;9.43;96.96;99523.53;5005240;28;20566;-72
2023/11/15 01:08:49;;;;;;;1.50;1.40;;;;;;;9.42;97.39;99517.47;5020682;28;21247;-73
2023/11/15 01:11:16;;;;;;;1.57;1.47;;;;;;;9.44;97.76;99530.31;5022692;28;20203;-73
2023/11/15 01:13:46;;;;;;;3.63;1.67;;;;;;;9.44;97.42;99517.91;5018980;28;20607;-73
2023/11/15 01:16:12;;;;;;;2.10;1.90;;;;;;;9.46;97.98;99526.22;5003877;28;20285;-73
2023/11/15 01:18:39;;;;;;;4.43;1.73;;;;;;;9.46;97.78;99528.88;5020671;28;20200;-72
2023/11/15 01:21:08;;;;;;;2.00;1.57;;;;;;;9.48;97.90;99524.00;5023637;28;20203;-73
2023/11/15 01:23:35;;;;;;;2.10;1.73;;;;;;;9.48;97.44;99529.28;5021214;28;20192;-72
2023/11/15 01:26:01;;;;;;;2.80;1.77;;;;;;;9.49;97.96;99535.31;5004224;28;20223;-74
2023/11/15 01:28:28;;;;;;;3.10;1.87;;;;;;;9.49;97.76;99537.94;5024348;28;20208;-73
2023/11/15 01:30:55;;;;;;;2.87;1.80;;;;;;;9.48;98.19;99539.06;5022435;28;20200;-72
2023/11/15 01:33:23;;;;;;;3.47;2.03;;;;;;;9.47;98.26;99540.94;5021099;28;20232;-73
2023/11/15 01:35:50;;;;;;;4.40;2.03;;;;;;;9.48;98.14;99539.81;5020325;28;20220;-72
2023/11/15 01:38:17;;;;;;;3.67;1.97;;;;;;;9.49;98.42;99540.59;5016994;28;20295;-73
2023/11/15 01:40:48;;;;;;;4.50;1.90;;;;;;;9.49;98.09;99548.50;5021802;28;20607;-74
2023/11/15 01:43:16;;;;;;;1.53;1.43;;;;;;;9.50;98.47;99547.38;5019804;28;20196;-73
2023/11/15 01:45:42;;;;;;;4.93;2.03;;;;;;;9.50;98.16;99553.44;5023663;28;20220;-72
2023/11/15 01:48:11;;;;;;;2.57;2.03;;;;;;;9.49;98.37;99557.19;5022839;28;20255;-74
2023/11/15 01:50:37;;;;;;;2.70;2.10;;;;;;;9.50;99.14;99556.06;5005760;28;20208;-73
2023/11/15 01:53:04;;;;;;;2.30;2.10;;;;;;;9.50;98.90;99557.91;5019597;28;20292;-73
2023/11/15 01:55:32;;;;;;;2.53;2.13;;;;;;;9.50;98.43;99557.91;5023823;28;20224;-73
2023/11/15 01:57:59;;;;;;;2.10;1.90;;;;;;;9.48;98.22;99560.91;5019072;28;20195;-72
2023/11/15 02:00:25;;;;;;;6.37;2.40;;;;;;;9.46;98.19;99557.84;5010051;28;20228;-73
2023/11/15 02:02:52;;;;;;;4.03;2.10;;;;;;;9.44;98.06;99565.34;5006222;28;20204;-74
2023/11/15 02:05:20;;;;;;;3.37;1.73;;;;;;;9.42;97.69;99564.91;5002937;28;20231;-73
2023/11/15 02:07:48;;;;;;;3.37;1.93;;;;;;;9.41;98.04;99567.88;5018670;28;20235;-73
2023/11/15 02:10:14;;;;;;;3.83;2.27;;;;;;;9.38;97.58;99574.59;5022005;28;20200;-74
2023/11/15 02:12:41;;;;;;;2.67;1.53;;;;;;;9.35;97.56;99569.25;5006418;28;20220;-73
2023/11/15 02:15:08;;;;;;;4.77;1.90;;;;;;;9.32;97.28;99570.69;5022516;28;20226;-73
2023/11/15 02:17:34;;;;;;;2.07;1.87;;;;;;;9.30;97.49;99567.63;5008806;28;20345;-72
2023/11/15 02:20:04;;;;;;;3.70;1.87;;;;;;;9.28;97.21;99574.34;5027404;28;20215;-74
2023/11/15 02:22:42;;;;;;;3.27;2.17;;;;;;;9.26;97.15;99569.41;5010434;28;20223;-73
2023/11/15 02:25:10;;;;;;;2.50;2.17;;;;;;;9.24;97.73;99570.84;5009075;28;20537;-73
2023/11/15 02:27:36;;;;;;;2.77;1.73;;;;;;;9.22;97.94;99573.81;5027406;28;20687;-72
2023/11/15 02:30:04;;;;;;;5.10;1.90;;;;;;;9.22;97.53;99581.72;5020071;28;20200;-72
2023/11/15 02:32:31;;;;;;;2.53;1.70;;;;;;;9.21;97.83;99596.00;5009077;28;20227;-72
2023/11/15 02:35:00;;;;;;;3.17;1.80;;;;;;;9.20;97.97;99588.44;5010981;28;20224;-73
2023/11/15 02:37:29;;;;;;;3.23;2.13;;;;;;;9.20;98.27;99586.59;5024448;28;20235;-72
2023/11/15 02:39:57;;;;;;;6.07;2.00;;;;;;;9.18;98.21;99599.34;5026968;28;20207;-73
2023/11/15 02:42:26;;;;;;;3.20;1.77;;;;;;;9.20;97.99;99604.25;5022330;28;20621;-72
2023/11/15 02:44:52;;;;;;;3.10;1.97;;;;;;;9.18;98.16;99604.59;5025945;28;20230;-72
2023/11/15 02:47:18;;;;;;;3.30;2.13;;;;;;;9.18;97.99;99607.25;5009744;28;20200;-72
2023/11/15 02:49:45;;;;;;;1.87;1.67;;;;;;;9.18;98.51;99607.25;5024436;28;20203;-72
2023/11/15 02:52:11;;;;;;;3.87;2.07;;;;;;;9.17;98.89;99608.31;5026799;28;20214;-72
2023/11/15 02:54:38;;;;;;;5.07;1.83;;;;;;;9.18;99.08;99611.72;5008322;28;20630;-72
2023/11/15 02:57:05;;;;;;;2.10;1.80;;;;;;;9.19;98.90;99616.66;5006244;28;20589;-73
2023/11/15 02:59:33;;;;;;;5.40;2.00;;;;;;;9.18;98.89;99617.78;5027840;28;20210;-72
2023/11/15 03:02:00;;;;;;;3.03;2.07;;;;;;;9.20;98.87;99630.59;5009550;28;20247;-73
2023/11/15 03:04:26;;;;;;;4.33;2.37;;;;;;;9.20;98.69;99633.22;5024865;28;20224;-73
2023/11/15 03:06:54;;;;;;;2.37;2.10;;;;;;;9.21;99.14;99640.78;5026791;28;20557;-72
2023/11/15 03:09:21;;;;;;;2.33;2.13;;;;;;;9.21;98.80;99640.78;5027182;28;20212;-72
2023/11/15 03:11:47;;;;;;;5.03;2.50;;;;;;;9.21;99.53;99643.41;5003184;28;20707;-72
2023/11/15 03:14:22;;;;;;;3.17;2.13;;;;;;;9.22;99.43;99644.19;5007907;28;20220;-73
2023/11/15 03:16:50;;;;;;;3.33;2.30;;;;;;;9.23;99.15;99648.34;5011645;28;20204;-72
2023/11/15 03:19:18;;;;;;;3.07;2.13;;;;;;;9.24;98.82;99652.50;5026184;28;20572;-73
2023/11/15 03:21:45;;;;;;;5.83;2.40;;;;;;;9.25;98.95;99669.84;5022545;28;20567;-73
2023/11/15 03:24:11;;;;;;;2.93;2.43;;;;;;;9.26;99.16;99663.50;5020821;28;20223;-73
2023/11/15 03:26:38;;;;;;;3.27;2.20;;;;;;;9.26;98.98;99666.13;5009660;28;20790;-73
2023/11/15 03:29:05;;;;;;;5.00;2.43;;;;;;;9.27;98.83;99673.66;5023951;28;20200;-73
2023/11/15 03:31:31;;;;;;;6.47;3.13;;;;;;;9.27;99.61;99670.28;5024992;28;20199;-73
2023/11/15 03:34:01;;;;;;;3.63;2.70;;;;;;;9.26;99.00;99677.41;5010859;28;20255;-73
2023/11/15 03:36:28;;;;;;;4.40;2.50;;;;;;;9.26;99.20;99680.06;5022837;28;20199;-73
2023/11/15 03:38:54;;;;;;;4.73;2.47;;;;;;;9.26;98.97;99684.56;5007571;28;21321;-73
2023/11/15 03:41:21;;;;;;;4.13;2.50;;;;;;;9.26;99.52;99695.84;5021298;28;20665;-73
2023/11/15 03:43:47;;;;;;;2.93;2.67;;;;;;;9.26;99.34;99695.84;5023897;28;20199;-73
2023/11/15 03:46:13;;;;;;;6.97;2.63;;;;;;;9.26;99.46;99713.56;5024993;28;20201;-72
2023/11/15 03:48:40;;;;;;;3.63;2.13;;;;;;;9.25;99.38;99712.00;5007974;28;20207;-72
2023/11/15 03:51:07;;;;;;;4.07;2.73;;;;;;;9.25;99.22;99719.91;5020868;28;20195;-73
2023/11/15 03:53:36;;;;;;;2.80;2.33;;;;;;;9.26;99.35;99716.94;5022382;28;20235;-73
2023/11/15 03:56:02;;;;;;;4.27;2.20;;;;;;;9.27;99.22;99726.34;5007407;28;20193;-73
2023/11/15 03:58:32;;;;;;;2.63;2.17;;;;;;;9.26;99.30;99721.44;5002570;28;20208;-73
2023/11/15 04:01:00;;;;;;;3.13;2.67;;;;;;;9.25;99.03;99733.84;5024544;28;20201;-73
2023/11/15 04:03:26;;;;;;;3.87;2.60;;;;;;;9.25;98.74;99731.22;5010463;28;20245;-73
2023/11/15 04:05:53;;;;;;;7.13;2.63;;;;;;;9.25;98.80;99741.75;5025818;28;20680;-73
2023/11/15 04:08:22;;;;;;;3.37;2.50;;;;;;;9.25;99.15;99749.66;5024588;28;20207;-73
2023/11/15 04:10:50;;;;;;;3.00;2.47;;;;;;;9.26;99.27;99753.81;5023608;28;20207;-73
2023/11/15 04:13:17;;;;;;;4.37;2.83;;;;;;;9.25;99.09;99752.28;5024325;28;20220;-73
2023/11/15 04:15:44;;;;;;;3.50;2.43;;;;;;;9.24;99.25;99756.03;5014599;28;20211;-73
2023/11/15 04:18:10;;;;;;;4.47;3.03;;;;;;;9.25;98.53;99768.09;5021981;28;20203;-74
2023/11/15 04:20:39;;;;;;;5.13;2.70;;;;;;;9.24;99.09;99761.28;5006292;28;20211;-73
2023/11/15 04:23:05;;;;;;;5.87;2.77;;;;;;;9.26;98.70;99768.88;5020361;28;20199;-73
2023/11/15 04:25:33;;;;;;;3.87;2.67;;;;;;;9.26;99.11;99763.59;5025767;28;20231;-73
2023/11/15 04:28:00;;;;;;;7.70;2.73;;;;;;;9.26;98.82;99779.41;5023048;28;20209;-73
2023/11/15 04:30:26;;;;;;;5.27;2.87;;;;;;;9.24;99.02;99776.31;5030743;28;20571;-72
2023/11/15 04:32:53;;;;;;;4.87;2.83;;;;;;;9.24;99.25;99782.38;5022942;28;20759;-73
2023/11/15 04:35:19;;;;;;;4.83;2.73;;;;;;;9.26;99.02;99782.03;5003675;28;20696;-73
2023/11/15 04:37:48;;;;;;;4.80;2.60;;;;;;;9.25;98.91;99785.75;5024310;28;20207;-72
2023/11/15 04:40:15;;;;;;;3.40;2.90;;;;;;;9.24;98.88;99773.69;5020648;28;20195;-73
2023/11/15 04:42:42;;;;;;;7.17;2.93;;;;;;;9.25;98.57;99793.66;5019582;28;20200;-72
2023/11/15 04:45:10;;;;;;;4.53;2.80;;;;;;;9.23;98.98;99791.38;5023952;28;20223;-74
2023/11/15 04:47:36;;;;;;;5.17;2.90;;;;;;;9.24;98.17;99792.13;5025645;28;20210;-73
2023/11/15 04:50:04;;;;;;;3.10;2.50;;;;;;;9.22;98.17;99797.72;5024385;28;20252;-73
2023/11/15 04:52:30;;;;;;;4.60;2.60;;;;;;;9.22;98.42;99804.88;5022929;28;20680;-73
2023/11/15 04:54:57;;;;;;;3.97;2.27;;;;;;;9.22;98.13;99802.25;5006228;28;20220;-72
2023/11/15 04:57:25;;;;;;;2.67;2.27;;;;;;;9.20;98.25;99815.75;5025570;28;20278;-72
2023/11/15 04:59:55;;;;;;;6.27;2.50;;;;;;;9.17;97.83;99819.03;5022005;28;20204;-72
2023/11/15 05:02:21;;;;;;;4.47;2.47;;;;;;;9.17;97.61;99823.53;5025544;28;20207;-72
2023/11/15 05:04:48;;;;;;;2.97;2.27;;;;;;;9.15;97.62;99815.19;5019518;28;20223;-73
2023/11/15 05:07:15;;;;;;;4.77;2.40;;;;;;;9.14;97.93;99830.25;5022726;28;20200;-72
2023/11/15 05:09:41;;;;;;;2.67;2.47;;;;;;;9.17;97.75;99834.84;5024384;28;20218;-73
2023/11/15 05:12:08;;;;;;;6.17;2.33;;;;;;;9.17;97.84;99845.38;5025671;28;20195;-73
2023/11/15 05:14:36;;;;;;;3.60;2.33;;;;;;;9.18;97.67;99844.28;5024972;28;20604;-73
2023/11/15 05:17:04;;;;;;;6.13;2.63;;;;;;;9.19;97.79;99850.31;5028064;28;20214;-73
2023/11/15 05:19:30;;;;;;;3.00;2.37;;;;;;;9.20;97.32;99860.53;5027671;28;20265;-72
2023/11/15 05:21:57;;;;;;;5.30;2.07;;;;;;;9.21;97.29;99858.66;5025243;28;20328;-73
2023/11/15 05:24:23;;;;;;;3.50;2.50;;;;;;;9.23;97.39;99867.00;5026165;28;20638;-72
2023/11/15 05:26:50;;;;;;;2.57;2.20;;;;;;;9.23;97.18;99867.78;5022234;28;20275;-73
2023/11/15 05:29:17;;;;;;;3.83;2.43;;;;;;;9.25;97.45;99870.03;5022967;28;20204;-73
2023/11/15 05:31:46;;;;;;;3.80;2.70;;;;;;;9.25;97.23;99870.81;5020658;28;20200;-72
2023/11/15 05:34:14;;;;;;;5.43;2.70;;;;;;;9.26;97.42;99874.25;5021705;28;20223;-73
2023/11/15 05:36:40;;;;;;;5.83;2.80;;;;;;;9.25;96.79;99889.25;5017008;28;20232;-72
2023/11/15 05:39:07;;;;;;;3.00;2.43;;;;;;;9.27;96.95;99891.56;5024047;28;20203;-72
2023/11/15 05:41:33;;;;;;;3.23;2.63;;;;;;;9.27;97.47;99894.97;5026695;28;20192;-73
2023/11/15 05:44:00;;;;;;;3.73;2.50;;;;;;;9.26;97.07;99893.44;5023504;28;20240;-73
2023/11/15 05:46:29;;;;;;;4.67;2.37;;;;;;;9.25;97.27;99902.44;5022930;28;20192;-73
2023/11/15 05:48:56;;;;;;;5.23;2.83;;;;;;;9.25;97.50;99899.81;5022130;28;20603;-72
2023/11/15 05:51:23;;;;;;;3.00;2.60;;;;;;;9.25;97.27;99907.72;5025817;28;20233;-73
2023/11/15 05:53:50;;;;;;;3.80;2.40;;;;;;;9.24;97.70;99918.56;5043509;28;20686;-73
2023/11/15 05:56:16;;;;;;;6.83;2.40;;;;;;;9.23;97.88;99920.44;5029615;28;20708;-72
2023/11/15 05:58:42;;;;;;;4.20;2.47;;;;;;;9.23;97.86;99915.19;5051459;22;20746;-72
2023/11/15 06:01:09;;;;;;;3.10;2.40;;;;;;;9.25;97.72;99928.00;5003962;28;20197;-73
2023/11/15 06:03:36;;;;;;;4.80;2.07;;;;;;;9.24;97.75;99929.88;5003296;28;20234;-73
2023/11/15 06:06:02;;;;;;;2.17;2.03;;;;;;;9.25;97.67;99936.69;5009337;28;20221;-72
2023/11/15 06:08:33;;;;;;;3.27;2.07;;;;;;;9.24;97.42;99943.06;5007550;28;20580;-72
2023/11/15 06:10:59;;;;;;;1.70;1.60;;;;;;;9.23;97.33;99946.00;5004697;28;20193;-73
2023/11/15 06:13:25;;;;;;;2.80;1.77;;;;;;;9.23;97.20;99948.66;5006301;28;20295;-73
2023/11/15 06:15:52;;;;;;;2.13;1.80;;;;;;;9.19;96.70;99955.66;5007976;28;20221;-73
2023/11/15 06:18:18;;;;;;;4.03;1.70;;;;;;;9.16;96.88;99962.38;5008717;28;20209;-72
2023/11/15 06:20:47;;;;;;;2.40;1.80;;;;;;;9.15;97.32;99971.38;5007170;28;20384;-73
2023/11/15 06:23:14;;;;;;;4.07;2.10;;;;;;;9.13;96.91;99980.69;5006363;28;20268;-73
2023/11/15 06:25:41;;;;;;;4.00;1.80;;;;;;;9.13;97.07;99981.47;5007497;28;20237;-73
2023/11/15 06:28:08;;;;;;;2.93;1.60;;;;;;;9.13;97.10;99992.00;5009337;28;20195;-73
2023/11/15 06:30:34;;;;;;;3.30;1.57;;;;;;;9.13;96.54;99994.66;5010212;28;20219;-73
2023/11/15 06:33:02;;;;;;;2.80;1.90;;;;;;;9.13;96.57;99999.13;5007447;28;20680;-73
2023/11/15 06:35:28;;;;;;;2.10;1.60;;;;;;;9.13;96.95;99999.91;5007100;28;20221;-72
2023/11/15 06:37:55;;;;;;;2.13;1.80;;;;;;;9.13;97.13;100002.56;5008469;28;20736;-73
2023/11/15 06:40:21;;;;;;;3.17;2.23;;;;;;;9.14;96.17;99993.53;5008094;28;20212;-73
2023/11/15 06:42:49;;;;;;;2.47;1.80;;;;;;;9.14;96.28;100009.34;5008433;28;20199;-73
2023/11/15 06:45:15;;;;;;;2.03;1.53;;;;;;;9.14;95.71;100005.94;5008290;28;20225;-73
2023/11/15 06:47:45;;;;;;;5.23;1.50;;;;;;;9.15;96.00;100005.63;5021981;28;20209;-72
2023/11/15 06:50:13;;;;;;;1.97;1.40;;;;;;;9.13;95.08;100020.22;5006804;28;20235;-73
2023/11/15 06:52:40;;;;;;;2.80;1.27;;;;;;;9.11;94.84;100020.53;5009003;28;20276;-73
2023/11/15 06:55:09;;;;;;;4.77;1.40;;;;;;;9.10;94.50;100026.91;5021118;28;20225;-73
2023/11/15 06:57:37;;;;;;;2.50;1.67;;;;;;;9.09;94.65;100038.53;5012479;28;20287;-73
2023/11/15 07:00:08;;;;;;;2.93;1.60;;;;;;;9.05;93.71;100040.28;5002866;28;20207;-73
2023/11/15 07:02:35;;;;;;;2.83;1.30;;;;;;;9.05;94.52;100039.50;5003238;28;20201;-72
2023/11/15 07:05:01;;;;;;;1.97;1.40;;;;;;;9.03;94.38;100031.94;5012822;28;20235;-72
2023/11/15 07:07:28;;;;;;;2.33;1.37;;;;;;;9.03;94.91;100047.75;5000609;28;20211;-72
2023/11/15 07:09:55;;;;;;;2.47;1.50;;;;;;;9.04;93.97;100049.28;5006190;28;21760;-73
2023/11/15 07:12:23;;;;;;;1.63;1.17;;;;;;;9.04;93.59;100051.91;5006140;28;20246;-72
2023/11/15 07:14:51;;;;;;;2.77;1.20;;;;;;;9.04;93.33;100064.31;5011656;28;20248;-73
2023/11/15 07:17:19;;;;;;;1.27;1.07;;;;;;;9.04;92.59;100059.03;5005797;28;20616;-72
2023/11/15 07:19:45;;;;;;;3.60;1.20;;;;;;;9.06;92.42;100068.16;5025343;28;20207;-72
2023/11/15 07:22:12;;;;;;;1.40;1.30;;;;;;;9.06;92.32;100077.94;5011948;28;20677;-73
2023/11/15 07:24:39;;;;;;;1.70;1.23;;;;;;;9.05;92.56;100076.38;5004796;28;20692;-72
2023/11/15 07:27:07;;;;;;;2.63;1.50;;;;;;;9.04;91.49;100088.78;5023270;28;20200;-71
2023/11/15 07:29:34;;;;;;;1.57;1.07;;;;;;;9.04;91.78;100091.41;5010334;28;20196;-73
2023/11/15 07:32:04;;;;;;;2.50;1.13;;;;;;;9.05;92.92;100100.84;5008292;28;20193;-72
2023/11/15 07:34:33;;;;;;;1.30;1.00;;;;;;;9.05;90.76;100113.25;5008442;28;20288;-73
2023/11/15 07:36:59;;;;;;;2.30;1.03;;;;;;;9.07;92.00;100119.72;5008832;28;20225;-73
2023/11/15 07:39:25;;;;;;;4.90;1.20;;;;;;;9.05;90.36;100124.56;5008113;28;20292;-73
2023/11/15 07:41:52;;;;;;;1.17;0.90;;;;;;;9.03;87.71;100137.28;5005630;28;20223;-73
2023/11/15 07:44:19;;;;;;;0.77;0.77;;;;;;;8.98;82.96;100147.25;5009194;28;20224;-73
2023/11/15 07:46:46;;;;;;;1.13;1.03;;;;;;;8.97;84.04;100149.13;5007729;28;20404;-73
2023/11/15 07:49:18;;;;;;;0.90;0.90;;;;;;;8.92;84.83;100170.41;5027197;28;20208;-73
2023/11/15 07:51:46;;;;;;;0.80;0.80;;;;;;;8.88;83.65;100166.88;5011958;28;20282;-72
2023/11/15 07:54:13;;;;;;;0.73;0.70;;;;;;;8.81;81.62;100166.59;5009223;28;20278;-73
2023/11/15 07:56:40;;;;;;;0.90;0.70;;;;;;;8.76;82.90;100164.16;5011035;28;20204;-73
2023/11/15 07:59:06;;;;;;;1.03;0.80;;;;;;;8.73;82.51;100175.34;5006775;28;20204;-72
2023/11/15 08:01:33;;;;;;;0.80;0.80;;;;;;;8.66;80.71;100174.31;5007882;28;20572;-73
2023/11/15 08:04:01;;;;;;;0.97;0.90;;;;;;;8.67;82.21;100176.66;5007520;28;20573;-73
2023/11/15 08:06:27;;;;;;;0.83;0.83;;;;;;;8.66;82.44;100179.59;5005669;28;20284;-73
2023/11/15 08:08:58;;;;;;;1.80;0.67;;;;;;;8.61;81.84;100180.56;5008071;28;20648;-73
2023/11/15 08:11:25;;;;;;;0.60;0.60;;;;;;;8.51;82.10;100175.69;5013972;28;20211;-73
2023/11/15 08:13:53;;;;;;;1.10;0.93;;;;;;;8.48;80.78;100200.00;5006558;28;20226;-73
2023/11/15 08:16:22;;;;;;;0.90;0.90;;;;;;;8.43;81.27;100208.06;5009026;28;20202;-72
2023/11/15 08:18:49;;;;;;;1.70;1.33;;;;;;;8.38;81.83;100200.38;5007854;28;20726;-72
2023/11/15 08:21:15;;;;;;;0.80;0.80;;;;;;;8.36;81.08;100214.94;5006939;28;20214;-72
2023/11/15 08:23:42;;;;;;;1.00;0.90;;;;;;;8.36;81.83;100225.47;5008084;28;20262;-72
2023/11/15 08:26:09;;;;;;;1.17;0.93;;;;;;;8.34;81.34;100236.28;5006282;28;20244;-73
2023/11/15 08:28:36;;;;;;;0.60;0.60;;;;;;;8.36;81.09;100246.50;5013244;28;20203;-71
2023/11/15 08:31:04;;;;;;;1.10;1.00;;;;;;;8.37;80.41;100256.72;5006557;28;20253;-73
2023/11/15 08:33:32;;;;;;;0.90;0.90;;;;;;;8.38;81.75;100250.34;5007045;28;20304;-73
2023/11/15 08:35:59;;;;;;;0.90;0.90;;;;;;;8.40;80.18;100261.34;5005123;28;20245;-73
2023/11/15 08:38:32;;;;;;;0.90;0.87;;;;;;;8.42;80.49;100256.53;5003346;28;20611;-73
2023/11/15 08:40:59;;;;;;;2.50;0.80;;;;;;;8.41;80.02;100270.00;5005690;28;20211;-73
2023/11/15 08:43:26;;;;;;;1.07;0.90;;;;;;;8.43;80.40;100279.13;5009887;28;20735;-72
2023/11/15 08:45:54;;;;;;;2.40;2.20;;;;;;;8.39;79.76;100275.56;5006334;28;20302;-73
2023/11/15 08:48:20;;;;;;;1.50;1.40;;;;;;;8.40;82.93;100285.03;5005485;28;20330;-73
2023/11/15 08:50:47;;;;;;;3.40;0.80;;;;;;;8.41;82.14;100289.19;5009663;28;20205;-73
2023/11/15 08:53:17;;;;;;;0.70;0.70;;;;;;;8.42;81.43;100288.09;5007470;28;20203;-73
2023/11/15 08:55:46;;;;;;;0.60;0.60;;;;;;;8.44;80.81;100296.44;5009366;28;20606;-73
2023/11/15 08:58:13;;;;;;;0.93;0.73;;;;;;;8.47;79.35;100297.66;5010779;28;20203;-73
2023/11/15 09:00:43;;;;;;;0.70;0.70;;;;;;;8.50;80.10;100295.16;5004588;28;20208;-73
2023/11/15 09:03:10;;;;;;;0.80;0.80;;;;;;;8.53;80.38;100294.53;5005621;28;20664;-73
2023/11/15 09:05:37;;;;;;;1.00;1.00;;;;;;;8.58;79.72;100309.38;5002432;28;20221;-73
2023/11/15 09:08:03;;;;;;;0.80;0.80;;;;;;;8.59;79.47;100311.69;5007251;28;20738;-73
2023/11/15 09:10:31;;;;;;;0.80;0.80;;;;;;;8.63;80.17;100309.97;5010360;28;20205;-73
2023/11/15 09:12:58;;;;;;;0.80;0.77;;;;;;;8.66;80.33;100311.19;5006754;28;20210;-72
2023/11/15 09:15:25;;;;;;;0.80;0.80;;;;;;;8.71;78.88;100316.28;5004976;28;20250;-73
2023/11/15 09:17:53;;;;;;;1.20;1.00;;;;;;;8.77;80.97;100328.16;5005793;28;20212;-73
2023/11/15 09:20:25;;;;;;;1.20;1.10;;;;;;;8.78;79.67;100321.78;5001137;28;20201;-73
2023/11/15 09:22:54;;;;;;;2.90;2.50;;;;;;;8.83;79.80;100327.66;5004491;28;20205;-73
2023/11/15 09:25:23;;;;;;;19.40;12.23;;;;;;;8.87;81.50;100336.47;5004051;28;20213;-73
2023/11/15 09:27:50;;;;;;;6.37;5.50;;;;;;;8.92;79.87;100335.50;5010838;28;20576;-73
2023/11/15 09:30:18;;;;;;;1.13;1.07;;;;;;;9.00;80.01;100342.59;5009263;28;20775;-72
2023/11/15 09:32:49;;;;;;;0.90;0.90;;;;;;;9.03;77.95;100339.28;5011120;28;20205;-71
2023/11/15 09:35:17;;;;;;;1.47;1.37;;;;;;;9.09;78.70;100344.06;5011033;28;20278;-73
2023/11/15 09:37:44;;;;;;;1.83;1.73;;;;;;;9.18;78.50;100344.00;5012765;28;20197;-74
2023/11/15 09:40:12;;;;;;;1.30;1.20;;;;;;;9.22;78.93;100350.91;5005450;28;20212;-73
2023/11/15 09:42:42;;;;;;;1.10;1.10;;;;;;;9.30;78.30;100355.38;5009130;28;20263;-72
2023/11/15 09:45:12;;;;;;;1.67;1.40;;;;;;;9.36;77.63;100354.06;5024387;28;20217;-72
2023/11/15 09:47:40;;;;;;;1.63;1.53;;;;;;;9.41;78.95;100355.72;5007626;28;20208;-73
2023/11/15 09:50:09;;;;;;;4.47;2.90;;;;;;;9.40;77.89;100360.25;5006582;28;20201;-73
2023/11/15 09:52:39;;;;;;;1.53;1.43;;;;;;;9.39;77.64;100350.81;5010272;28;20209;-73
2023/11/15 09:55:07;;;;;;;2.83;1.77;;;;;;;9.40;78.23;100362.88;5008697;28;20226;-73
2023/11/15 09:57:36;;;;;;;2.63;1.40;;;;;;;9.43;78.58;100367.50;5006631;28;20370;-73
2023/11/15 10:00:05;;;;;;;1.30;1.20;;;;;;;9.46;77.62;100374.78;5007519;28;20208;-73
2023/11/15 10:02:34;;;;;;;1.70;1.60;;;;;;;9.49;76.47;100384.69;5004210;28;20212;-71
2023/11/15 10:05:14;;;;;;;1.47;1.37;;;;;;;9.53;76.15;100369.00;5004198;28;20244;-73
2023/11/15 10:07:42;;;;;;;1.20;1.10;;;;;;;9.60;77.90;100385.81;5009977;28;20259;-75
2023/11/15 10:10:17;;;;;;;1.87;1.27;;;;;;;9.65;76.28;100390.13;5006003;28;20209;-73
2023/11/15 10:12:45;;;;;;;2.00;1.90;;;;;;;9.71;77.12;100402.78;5007941;28;20206;-73
2023/11/15 10:15:12;;;;;;;3.50;2.90;;;;;;;9.67;75.26;100407.16;5005467;28;20214;-72
2023/11/15 10:17:42;;;;;;;2.43;1.50;;;;;;;9.66;76.92;100412.75;5007298;28;20232;-73
2023/11/15 10:20:18;;;;;;;3.80;3.10;;;;;;;9.65;75.57;100406.72;5008753;28;20218;-73
2023/11/15 10:22:46;;;;;;;3.13;1.87;;;;;;;9.66;75.18;100412.75;5023263;28;20206;-73
2023/11/15 10:25:13;;;;;;;2.30;2.10;;;;;;;9.66;77.04;100413.53;5007365;28;20222;-71
2023/11/15 10:27:40;;;;;;;0.90;0.87;;;;;;;9.64;75.92;100410.44;5008143;28;20309;-73
2023/11/15 10:30:12;;;;;;;1.00;0.90;;;;;;;9.66;78.28;100418.81;5011526;28;20198;-73
2023/11/15 10:32:40;;;;;;;0.50;0.50;;;;;;;9.61;76.62;100408.44;5007565;28;21007;-73
2023/11/15 10:35:08;;;;;;;5.90;0.90;;;;;;;9.64;75.81;100420.22;5008443;28;20224;-73
2023/11/15 10:37:35;;;;;;;1.10;1.00;;;;;;;9.63;76.53;100416.03;5004088;28;20216;-73
2023/11/15 10:40:06;;;;;;;1.07;0.90;;;;;;;9.67;78.29;100425.63;5020102;28;20217;-72
2023/11/15 10:42:34;;;;;;;0.80;0.80;;;;;;;9.61;75.02;100428.75;5007586;28;20276;-73
2023/11/15 10:45:07;;;;;;;0.97;0.90;;;;;;;9.63;76.03;100435.25;5005126;28;20296;-73
2023/11/15 10:47:38;;;;;;;1.67;0.77;;;;;;;9.68;76.27;100426.41;5016725;28;20204;-72
2023/11/15 10:50:13;;;;;;;0.70;0.70;;;;;;;9.71;77.52;100433.66;5005601;28;20212;-72
2023/11/15 10:52:40;;;;;;;0.70;0.70;;;;;;;9.74;77.18;100441.69;5010987;28;20295;-73
2023/11/15 10:55:10;;;;;;;0.70;0.67;;;;;;;9.78;77.69;100442.56;5006103;28;20214;-73
2023/11/15 10:57:38;;;;;;;0.70;0.70;;;;;;;9.79;77.17;100452.03;5008706;28;20205;-72
2023/11/15 11:00:10;;;;;;;1.13;0.97;;;;;;;9.75;78.52;100453.00;5012556;28;20221;-73
2023/11/15 11:02:41;;;;;;;0.80;0.80;;;;;;;9.70;74.87;100453.97;5003812;28;20301;-72
2023/11/15 11:05:10;;;;;;;0.70;0.70;;;;;;;9.71;75.29;100460.78;5006077;28;20741;-73
2023/11/15 11:07:43;;;;;;;0.60;0.60;;;;;;;9.74;75.14;100465.41;5006921;28;20203;-73
2023/11/15 11:10:21;;;;;;;0.70;0.70;;;;;;;9.74;76.93;100464.66;5006707;28;20657;-73
2023/11/15 11:12:47;;;;;;;0.70;0.70;;;;;;;9.74;74.73;100464.66;5014680;28;20944;-73
2023/11/15 11:15:26;;;;;;;0.70;0.70;;;;;;;9.80;76.59;100469.41;5009064;28;20219;-73
2023/11/15 11:18:03;;;;;;;0.80;0.80;;;;;;;9.82;73.47;100464.56;5020905;28;20197;-73
2023/11/15 11:20:35;;;;;;;0.80;0.80;;;;;;;9.93;75.25;100471.00;5004085;28;20554;-73
2023/11/15 11:23:16;;;;;;;0.70;0.70;;;;;;;10.05;77.79;100470.31;5020877;28;20771;-73
2023/11/15 11:25:46;;;;;;;1.17;0.70;;;;;;;10.15;74.69;100470.69;5005337;28;20264;-73
2023/11/15 11:28:13;;;;;;;0.70;0.70;;;;;;;10.21;74.25;100472.03;5007606;28;20346;-72
2023/11/15 11:30:41;;;;;;;0.53;0.53;;;;;;;10.24;73.71;100471.38;5000782;28;20679;-73
2023/11/15 11:33:10;;;;;;;1.63;0.73;;;;;;;10.27;74.54;100476.00;5002477;28;20226;-73
2023/11/15 11:35:40;;;;;;;1.93;0.80;;;;;;;10.25;73.64;100472.16;5008957;28;20226;-73
2023/11/15 11:38:11;;;;;;;0.60;0.60;;;;;;;10.24;72.19;100475.91;5005741;28;20219;-73
2023/11/15 11:40:40;;;;;;;0.90;0.70;;;;;;;10.29;73.06;100473.81;5006239;28;20203;-72